Time;durP1;ratioP1;P1;durP2;ratioP2;P2;SDS_P1;SDS_P2;PMS_P1;PMS_P2;Temp;Humidity;BMP_temperature;BMP_pressure;BME280_temperature;BME280_humidity;BME280_pressure;Samples;Min_cycle;Max_cycle;Signal;HPM_P1;HPM_P2
2021/03/13 00:00:17;;;;;;;4.23;1.90;;;4.10;99.90;;;;;;6142989;23;20725;-82
2021/03/13 00:02:45;;;;;;;3.50;1.83;;;4.10;99.90;;;;;;6142585;23;20905;-82
2021/03/13 00:05:17;;;;;;;3.77;2.17;;;4.20;99.90;;;;;;6142559;23;20420;-82
2021/03/13 00:07:47;;;;;;;3.53;2.00;;;4.10;99.90;;;;;;6142461;23;20449;-82
2021/03/13 00:10:18;;;;;;;3.30;1.70;;;4.10;99.90;;;;;;6178696;23;20471;-82
2021/03/13 00:12:46;;;;;;;5.53;2.10;;;4.20;99.90;;;;;;6167115;23;20435;-82
2021/03/13 00:15:15;;;;;;;6.97;3.20;;;4.10;99.90;;;;;;6178863;23;20404;-82
2021/03/13 00:17:42;;;;;;;3.30;1.90;;;4.10;99.90;;;;;;6141083;23;20440;-82
2021/03/13 00:20:16;;;;;;;2.93;1.90;;;4.20;99.90;;;;;;6141672;23;20420;-82
2021/03/13 00:22:43;;;;;;;4.00;2.50;;;4.20;99.90;;;;;;6177520;23;20381;-82
2021/03/13 00:25:12;;;;;;;5.13;2.20;;;4.20;99.90;;;;;;6140841;23;20417;-82
2021/03/13 00:27:46;;;;;;;3.27;2.03;;;4.20;99.90;;;;;;6178355;23;20420;-82
2021/03/13 00:30:17;;;;;;;3.43;2.60;;;4.20;99.90;;;;;;6141541;23;20412;-82
2021/03/13 00:32:48;;;;;;;4.53;2.40;;;4.20;99.90;;;;;;6166053;23;20488;-82
2021/03/13 00:35:17;;;;;;;3.50;2.50;;;4.20;99.90;;;;;;6143029;23;20875;-82
2021/03/13 00:37:46;;;;;;;4.07;3.00;;;4.20;99.90;;;;;;6167579;23;20439;-82
2021/03/13 00:40:16;;;;;;;5.20;3.20;;;4.20;99.90;;;;;;6180439;23;20396;-82
2021/03/13 00:42:45;;;;;;;5.22;3.70;;;4.20;99.90;;;;;;6154739;23;20400;-82
2021/03/13 00:45:14;;;;;;;5.83;3.77;;;4.30;99.90;;;;;;6180934;23;20260;-82
2021/03/13 00:47:42;;;;;;;6.20;3.80;;;4.30;99.90;;;;;;6150542;23;20773;-82
2021/03/13 00:50:14;;;;;;;6.00;3.60;;;4.40;99.90;;;;;;6142274;23;20432;-82
2021/03/13 00:52:42;;;;;;;6.50;4.22;;;4.30;99.90;;;;;;6140603;23;20723;-82
2021/03/13 00:55:13;;;;;;;4.63;3.60;;;4.40;99.90;;;;;;6141369;23;20157;-82
2021/03/13 00:57:46;;;;;;;6.23;4.87;;;4.40;99.90;;;;;;6165480;23;20448;-82
2021/03/13 01:00:38;;;;;;;5.33;4.40;;;4.40;99.90;;;;;;6142194;23;20436;-82
2021/03/13 01:03:08;;;;;;;5.67;4.97;;;4.40;99.90;;;;;;6142581;23;20436;-82
2021/03/13 01:05:40;;;;;;;7.50;5.40;;;4.40;99.90;;;;;;6144564;23;20419;-82
2021/03/13 01:08:07;;;;;;;6.33;5.70;;;4.40;99.90;;;;;;6143864;23;20446;-82
2021/03/13 01:10:59;;;;;;;8.80;5.97;;;4.40;99.90;;;;;;6168828;23;20416;-82
2021/03/13 01:13:33;;;;;;;10.53;6.60;;;4.40;99.90;;;;;;6143840;23;20409;-82
2021/03/13 01:16:08;;;;;;;12.60;6.33;;;4.40;99.90;;;;;;6168618;23;20420;-82
2021/03/13 01:18:37;;;;;;;9.87;6.60;;;4.40;99.90;;;;;;6168342;23;20515;-82
2021/03/13 01:21:08;;;;;;;13.13;7.90;;;4.40;99.90;;;;;;6169060;23;20406;-82
2021/03/13 01:23:42;;;;;;;11.00;7.10;;;4.50;99.90;;;;;;6168340;23;20435;-82
2021/03/13 01:26:12;;;;;;;10.03;7.60;;;4.50;99.90;;;;;;6168845;23;20864;-83
2021/03/13 01:28:42;;;;;;;11.10;7.30;;;4.50;99.90;;;;;;6142478;23;20467;-83
2021/03/13 01:31:24;;;;;;;11.80;8.10;;;4.50;99.90;;;;;;6143225;23;20432;-83
2021/03/13 01:33:52;;;;;;;10.93;8.10;;;4.50;99.90;;;;;;6167728;23;20444;-83
2021/03/13 01:36:21;;;;;;;11.50;6.93;;;4.50;99.90;;;;;;6168038;23;20428;-83
2021/03/13 01:38:50;;;;;;;9.40;7.27;;;4.50;99.90;;;;;;6167117;23;20428;-83
2021/03/13 01:41:21;;;;;;;15.00;8.13;;;4.40;99.90;;;;;;6168364;23;20424;-83
2021/03/13 01:43:49;;;;;;;11.17;8.90;;;4.50;99.90;;;;;;6142475;23;20876;-83
2021/03/13 01:46:17;;;;;;;11.07;8.10;;;4.40;99.90;;;;;;6166226;23;20424;-83
2021/03/13 01:48:49;;;;;;;11.33;8.57;;;4.40;99.90;;;;;;6142334;23;20518;-82
2021/03/13 01:51:20;;;;;;;11.77;7.80;;;4.40;99.90;;;;;;6167218;23;20415;-82
2021/03/13 01:53:49;;;;;;;15.10;8.53;;;4.40;99.90;;;;;;6142852;23;20421;-82
2021/03/13 01:56:18;;;;;;;13.00;8.10;;;4.40;99.90;;;;;;6142422;23;20485;-82
2021/03/13 01:58:50;;;;;;;15.40;8.90;;;4.30;99.90;;;;;;6166954;23;20444;-82
2021/03/13 02:01:32;;;;;;;13.60;9.03;;;4.40;99.90;;;;;;6143175;23;20408;-82
2021/03/13 02:04:01;;;;;;;14.43;8.73;;;4.40;99.90;;;;;;6142355;23;20828;-82
2021/03/13 02:06:29;;;;;;;16.27;9.80;;;4.40;99.90;;;;;;6167074;23;20416;-82
2021/03/13 02:09:06;;;;;;;20.30;9.33;;;4.40;99.90;;;;;;6142744;23;20471;-82
2021/03/13 02:11:41;;;;;;;13.93;9.20;;;4.40;99.90;;;;;;6143174;23;20439;-83
2021/03/13 02:14:18;;;;;;;12.80;9.23;;;4.40;99.90;;;;;;6167682;23;20415;-83
2021/03/13 02:17:02;;;;;;;18.87;9.43;;;4.40;99.90;;;;;;6167012;23;20408;-83
2021/03/13 02:19:53;;;;;;;17.37;10.20;;;4.50;99.90;;;;;;6142711;23;20475;-83
2021/03/13 02:22:25;;;;;;;13.97;9.13;;;4.50;99.90;;;;;;6143041;23;20432;-83
2021/03/13 02:25:06;;;;;;;16.33;9.03;;;4.50;99.90;;;;;;6166850;23;20420;-83
2021/03/13 02:27:41;;;;;;;13.90;8.70;;;4.50;99.90;;;;;;6166789;23;20451;-83
2021/03/13 02:30:21;;;;;;;15.63;9.03;;;4.50;99.90;;;;;;6167548;23;20416;-83
2021/03/13 02:33:04;;;;;;;16.47;10.27;;;4.50;99.90;;;;;;6142664;23;20490;-83
2021/03/13 02:35:52;;;;;;;14.53;8.23;;;4.50;99.90;;;;;;6167477;23;20413;-82
2021/03/13 02:38:25;;;;;;;12.77;8.07;;;4.50;99.90;;;;;;6143282;23;20444;-82
2021/03/13 02:40:56;;;;;;;12.20;7.67;;;4.50;99.90;;;;;;6143005;23;20432;-82
2021/03/13 02:43:27;;;;;;;12.27;8.40;;;4.50;99.90;;;;;;6142420;23;20444;-82
2021/03/13 02:46:01;;;;;;;15.37;9.53;;;4.50;99.90;;;;;;6166388;23;20412;-83
2021/03/13 02:48:33;;;;;;;13.27;8.33;;;4.50;99.90;;;;;;6166724;23;20452;-83
2021/03/13 02:51:02;;;;;;;16.37;8.90;;;4.50;99.90;;;;;;6166858;23;20485;-83
2021/03/13 02:53:33;;;;;;;17.47;10.70;;;4.50;99.90;;;;;;6142711;23;20928;-82
2021/03/13 02:56:05;;;;;;;12.77;9.70;;;4.50;99.90;;;;;;6141469;23;20517;-82
2021/03/13 02:58:37;;;;;;;13.93;10.10;;;4.50;99.90;;;;;;6166139;23;20494;-82
2021/03/13 03:01:09;;;;;;;12.83;8.93;;;4.50;99.90;;;;;;6141604;23;20425;-83
2021/03/13 03:03:39;;;;;;;17.13;9.93;;;4.50;99.90;;;;;;6141836;23;20419;-83
2021/03/13 03:06:20;;;;;;;19.83;8.83;;;4.50;99.90;;;;;;6141117;23;20409;-83
2021/03/13 03:08:51;;;;;;;12.53;8.00;;;4.50;99.90;;;;;;6139887;23;20504;-82
2021/03/13 03:11:26;;;;;;;13.77;7.97;;;4.50;99.90;;;;;;6139973;23;20419;-82
2021/03/13 03:13:58;;;;;;;15.60;7.53;;;4.50;99.90;;;;;;6166448;23;20420;-82
2021/03/13 03:16:30;;;;;;;14.50;7.97;;;4.60;99.90;;;;;;6164826;23;20447;-82
2021/03/13 03:19:01;;;;;;;12.73;8.33;;;4.60;99.90;;;;;;6139255;23;20504;-82
2021/03/13 03:21:39;;;;;;;11.47;8.53;;;4.60;99.90;;;;;;6165524;23;20444;-82
2021/03/13 03:24:08;;;;;;;13.37;8.87;;;4.60;99.90;;;;;;6164336;23;20404;-82
2021/03/13 03:26:37;;;;;;;12.40;8.20;;;4.60;99.90;;;;;;6139901;23;20424;-82
2021/03/13 03:29:08;;;;;;;12.13;7.60;;;4.60;99.90;;;;;;6138191;23;20893;-82
2021/03/13 03:31:37;;;;;;;11.60;7.97;;;4.70;99.90;;;;;;6140628;23;20169;-82
2021/03/13 03:34:07;;;;;;;10.67;7.67;;;4.80;99.90;;;;;;6140703;23;20423;-82
2021/03/13 03:36:35;;;;;;;11.53;7.73;;;4.70;99.90;;;;;;6140092;23;20455;-82
2021/03/13 03:39:04;;;;;;;19.00;9.43;;;4.70;99.90;;;;;;6139754;23;20440;-82
2021/03/13 03:41:43;;;;;;;13.87;8.13;;;4.70;99.90;;;;;;6164619;23;20800;-82
2021/03/13 03:44:14;;;;;;;11.97;7.67;;;4.70;99.90;;;;;;6140147;23;20408;-82
2021/03/13 03:46:51;;;;;;;13.53;7.77;;;4.70;99.90;;;;;;6140555;23;20495;-82
2021/03/13 03:49:22;;;;;;;12.70;7.97;;;4.70;99.90;;;;;;6164355;23;20531;-82
2021/03/13 03:52:02;;;;;;;16.30;8.13;;;4.70;99.90;;;;;;6140803;23;20436;-82
2021/03/13 03:54:31;;;;;;;12.23;7.67;;;4.70;99.90;;;;;;6164925;23;20428;-82
2021/03/13 03:57:00;;;;;;;13.43;7.80;;;4.70;99.90;;;;;;6175565;23;20401;-82
2021/03/13 03:59:30;;;;;;;10.37;7.20;;;4.70;99.90;;;;;;6164250;23;20444;-82
2021/03/13 04:02:00;;;;;;;14.37;8.27;;;4.80;99.90;;;;;;6175586;23;20396;-82
2021/03/13 04:04:29;;;;;;;9.97;8.00;;;4.80;99.90;;;;;;6140064;23;20517;-82
2021/03/13 04:07:03;;;;;;;12.93;8.20;;;4.80;99.90;;;;;;6138867;23;20412;-82
2021/03/13 04:09:35;;;;;;;11.30;7.53;;;4.80;99.90;;;;;;6139611;23;20432;-82
2021/03/13 04:12:05;;;;;;;11.40;8.30;;;4.90;99.90;;;;;;6165525;23;20435;-82
2021/03/13 04:14:34;;;;;;;12.53;7.50;;;4.90;99.90;;;;;;6165190;23;20752;-82
2021/03/13 04:17:03;;;;;;;12.77;7.90;;;4.90;99.90;;;;;;6164885;23;20424;-83
2021/03/13 04:19:33;;;;;;;10.43;7.47;;;4.90;99.90;;;;;;6165415;23;20440;-83
2021/03/13 04:22:01;;;;;;;13.07;7.83;;;4.90;99.90;;;;;;6175870;23;20420;-83
2021/03/13 04:24:29;;;;;;;11.43;7.13;;;4.90;99.90;;;;;;6164422;23;20416;-83
2021/03/13 04:26:56;;;;;;;14.30;7.37;;;5.00;99.90;;;;;;6164523;23;20922;-83
2021/03/13 04:29:24;;;;;;;13.73;8.50;;;5.00;99.90;;;;;;6139466;23;20923;-82
2021/03/13 04:31:57;;;;;;;10.30;7.37;;;5.00;99.90;;;;;;6167120;23;20436;-82
2021/03/13 04:34:26;;;;;;;9.40;6.90;;;5.10;99.90;;;;;;6139273;23;20416;-82
2021/03/13 04:36:53;;;;;;;10.80;8.10;;;5.10;99.90;;;;;;6139647;23;20416;-82
2021/03/13 04:39:21;;;;;;;13.03;7.17;;;5.10;99.90;;;;;;6138811;23;20495;-82
2021/03/13 04:41:48;;;;;;;11.47;7.23;;;5.20;99.90;;;;;;6139595;23;20416;-82
2021/03/13 04:44:16;;;;;;;10.83;6.60;;;5.20;99.90;;;;;;6163485;23;20416;-82
2021/03/13 04:46:44;;;;;;;11.07;7.57;;;5.20;99.90;;;;;;6138371;23;20420;-82
2021/03/13 04:49:11;;;;;;;12.67;7.37;;;5.20;99.90;;;;;;6163536;23;20436;-82
2021/03/13 04:51:42;;;;;;;11.97;7.30;;;5.30;99.90;;;;;;6138461;23;20903;-82
2021/03/13 04:54:09;;;;;;;15.80;9.30;;;5.30;99.90;;;;;;6162782;23;20408;-82
2021/03/13 04:56:38;;;;;;;13.80;10.30;;;5.30;99.90;;;;;;6140177;23;20420;-82
2021/03/13 04:59:09;;;;;;;14.70;11.30;;;5.40;99.90;;;;;;6174898;23;20424;-82
2021/03/13 05:01:40;;;;;;;15.33;12.50;;;5.30;99.90;;;;;;6139797;23;20868;-82
2021/03/13 05:04:07;;;;;;;13.77;11.70;;;5.30;99.90;;;;;;6137860;23;20471;-81
2021/03/13 05:06:34;;;;;;;18.80;14.10;;;5.30;99.90;;;;;;6137495;23;20416;-81
2021/03/13 05:09:02;;;;;;;16.90;13.60;;;5.30;99.90;;;;;;6162562;23;20447;-82
2021/03/13 05:11:33;;;;;;;16.40;14.40;;;5.40;99.90;;;;;;6173501;23;20420;-82
2021/03/13 05:14:01;;;;;;;18.73;15.97;;;5.40;99.90;;;;;;6162140;23;20753;-82
2021/03/13 05:16:29;;;;;;;19.63;15.50;;;5.40;99.90;;;;;;6162016;23;20421;-82
2021/03/13 05:18:57;;;;;;;20.97;15.13;;;5.40;99.90;;;;;;6136829;23;20428;-82
2021/03/13 05:21:24;;;;;;;20.90;16.37;;;5.40;99.90;;;;;;6173389;23;20401;-82
2021/03/13 05:23:53;;;;;;;20.57;16.37;;;5.40;99.90;;;;;;6136915;23;20499;-82
2021/03/13 05:26:25;;;;;;;19.30;16.30;;;5.40;99.90;;;;;;6137153;23;20405;-82
2021/03/13 05:28:55;;;;;;;20.60;15.57;;;5.40;99.90;;;;;;6136181;23;20440;-82
2021/03/13 05:31:33;;;;;;;30.90;15.70;;;5.50;99.90;;;;;;6136695;23;20758;-82
2021/03/13 05:34:05;;;;;;;24.93;16.20;;;5.50;99.90;;;;;;6160779;23;20432;-82
2021/03/13 05:36:49;;;;;;;17.60;14.20;;;5.50;99.90;;;;;;6172087;23;20389;-82
2021/03/13 05:39:18;;;;;;;19.50;15.70;;;5.50;99.90;;;;;;6172455;23;20425;-82
2021/03/13 05:41:50;;;;;;;16.50;13.83;;;5.50;99.90;;;;;;6161082;23;20503;-82
2021/03/13 05:44:20;;;;;;;16.13;13.40;;;5.50;99.90;;;;;;6161254;23;20417;-82
2021/03/13 05:46:48;;;;;;;17.20;13.20;;;5.50;99.90;;;;;;6160162;23;20716;-82
2021/03/13 05:49:15;;;;;;;14.27;11.37;;;5.50;99.90;;;;;;6160216;23;20531;-82
2021/03/13 05:51:48;;;;;;;14.00;11.30;;;5.60;99.90;;;;;;6136338;23;20423;-82
2021/03/13 05:54:22;;;;;;;13.83;11.70;;;5.50;99.90;;;;;;6136240;23;20411;-82
2021/03/13 05:57:00;;;;;;;13.05;10.45;;;5.50;99.90;;;;;;6160720;23;20459;-82
2021/03/13 05:59:28;;;;;;;14.90;10.87;;;5.60;99.90;;;;;;6173343;23;20564;-83
2021/03/13 06:01:55;;;;;;;13.70;11.00;;;5.70;99.90;;;;;;6161291;23;20428;-83
2021/03/13 06:04:26;;;;;;;12.03;10.03;;;5.70;99.90;;;;;;6136880;23;20479;-82
2021/03/13 06:06:54;;;;;;;11.60;10.00;;;5.60;99.90;;;;;;6136273;23;20512;-82
2021/03/13 06:09:22;;;;;;;11.33;10.13;;;5.60;99.90;;;;;;6135491;23;20491;-83
2021/03/13 06:11:49;;;;;;;11.40;10.30;;;5.60;99.90;;;;;;6140899;23;20421;-82
2021/03/13 06:14:17;;;;;;;9.53;8.53;;;5.60;99.90;;;;;;6141939;23;20420;-82
2021/03/13 06:16:44;;;;;;;10.30;9.20;;;5.60;99.90;;;;;;6177576;23;20404;-82
2021/03/13 06:19:11;;;;;;;9.43;8.40;;;5.60;99.90;;;;;;6142029;23;20525;-82
2021/03/13 06:21:40;;;;;;;10.37;9.47;;;5.60;99.90;;;;;;6166178;23;20417;-82
2021/03/13 06:24:18;;;;;;;9.67;8.73;;;5.60;99.90;;;;;;6172077;23;20512;-82
2021/03/13 06:26:54;;;;;;;9.80;8.40;;;5.60;99.90;;;;;;6161784;23;20404;-82
2021/03/13 06:29:24;;;;;;;9.33;8.30;;;5.60;99.90;;;;;;6136601;23;20436;-83
2021/03/13 06:32:07;;;;;;;9.50;8.50;;;5.60;99.90;;;;;;6172871;23;20385;-83
2021/03/13 06:34:51;;;;;;;8.97;8.00;;;5.60;99.90;;;;;;6135934;23;20412;-83
2021/03/13 06:37:23;;;;;;;8.77;7.97;;;5.60;99.90;;;;;;6161459;23;20470;-84
2021/03/13 06:39:53;;;;;;;8.53;7.73;;;5.60;99.90;;;;;;6161828;23;20463;-83
2021/03/13 06:42:22;;;;;;;8.70;7.90;;;5.60;99.90;;;;;;6136587;23;20409;-83
2021/03/13 06:44:55;;;;;;;8.70;7.90;;;5.70;99.90;;;;;;6161182;23;20472;-83
2021/03/13 06:47:30;;;;;;;8.80;7.93;;;5.70;99.90;;;;;;6142039;23;20428;-83
2021/03/13 06:50:12;;;;;;;8.10;7.40;;;5.60;99.90;;;;;;6168784;23;20443;-83
2021/03/13 06:52:40;;;;;;;8.83;8.00;;;5.70;99.90;;;;;;6168913;23;20424;-82
2021/03/13 06:55:14;;;;;;;7.70;7.10;;;5.70;99.90;;;;;;6168280;23;20405;-83
2021/03/13 06:57:48;;;;;;;8.47;7.67;;;5.70;99.90;;;;;;6141266;23;20436;-83
2021/03/13 07:00:29;;;;;;;10.10;9.10;;;5.70;99.90;;;;;;6160592;23;20412;-83
2021/03/13 07:03:07;;;;;;;8.03;7.33;;;5.70;99.90;;;;;;6136273;23;20408;-83
2021/03/13 07:05:35;;;;;;;7.30;6.67;;;5.70;99.90;;;;;;6136800;23;20915;-83
2021/03/13 07:08:22;;;;;;;6.93;6.10;;;5.70;99.90;;;;;;6161903;23;20432;-83
2021/03/13 07:10:50;;;;;;;7.77;6.93;;;5.70;99.90;;;;;;6135975;23;20484;-83
2021/03/13 07:13:36;;;;;;;6.93;6.40;;;5.70;99.90;;;;;;6171783;23;20428;-83
2021/03/13 07:16:43;;;;;;;7.30;6.17;;;5.70;99.90;;;;;;6135889;23;20456;-83
2021/03/13 07:19:12;;;;;;;6.67;6.07;;;5.70;99.90;;;;;;6136249;23;20859;-83
2021/03/13 07:21:44;;;;;;;7.10;6.40;;;5.80;99.90;;;;;;6137791;23;20422;-83
2021/03/13 07:24:16;;;;;;;5.93;5.43;;;5.70;99.90;;;;;;6136209;23;20409;-83
2021/03/13 07:26:47;;;;;;;6.50;6.00;;;5.70;99.90;;;;;;6172356;23;20845;-83
2021/03/13 07:29:25;;;;;;;6.57;5.97;;;5.70;99.90;;;;;;6137085;23;20445;-83
2021/03/13 07:32:17;;;;;;;5.63;5.10;;;5.80;99.90;;;;;;6162114;23;20409;-83
2021/03/13 07:34:48;;;;;;;6.13;5.53;;;5.80;99.90;;;;;;6172569;23;20377;-83
2021/03/13 07:37:21;;;;;;;5.23;4.83;;;5.80;99.90;;;;;;6162578;23;20463;-83
2021/03/13 07:40:07;;;;;;;5.80;5.30;;;5.80;99.90;;;;;;6173192;23;20393;-83
2021/03/13 07:42:48;;;;;;;5.80;4.97;;;5.80;99.90;;;;;;6172377;23;20405;-83
2021/03/13 07:45:20;;;;;;;6.07;5.57;;;5.90;99.90;;;;;;6163051;23;20489;-83
2021/03/13 07:48:00;;;;;;;5.40;4.90;;;5.90;99.90;;;;;;6138231;23;20483;-83
2021/03/13 07:50:34;;;;;;;5.40;4.90;;;5.90;99.90;;;;;;6138968;23;20487;-83
2021/03/13 07:53:10;;;;;;;5.30;4.90;;;5.90;99.90;;;;;;6164188;23;20446;-83
2021/03/13 07:55:52;;;;;;;4.63;3.97;;;5.90;99.90;;;;;;6175453;23;20387;-83
2021/03/13 08:02:01;;;;;;;4.43;4.10;;;6.00;99.90;;;;;;6136217;23;20901;-83
2021/03/13 08:04:56;;;;;;;4.40;4.00;;;6.00;99.90;;;;;;6131731;23;20923;-83
2021/03/13 08:07:24;;;;;;;4.60;4.20;;;6.00;99.90;;;;;;6174912;23;20377;-83
2021/03/13 08:09:52;;;;;;;4.47;4.07;;;6.10;99.90;;;;;;6139162;23;20806;-83
2021/03/13 08:12:40;;;;;;;4.57;4.23;;;6.00;99.90;;;;;;6161893;23;20425;-83
2021/03/13 08:15:38;;;;;;;4.63;4.23;;;6.10;99.90;;;;;;6137406;23;20443;-83
2021/03/13 08:18:06;;;;;;;3.73;3.37;;;6.10;99.90;;;;;;6135265;23;20445;-83
2021/03/13 08:20:36;;;;;;;4.28;3.97;;;6.10;99.90;;;;;;6134537;23;20900;-83
2021/03/13 08:23:22;;;;;;;4.10;3.80;;;6.20;99.90;;;;;;6160921;23;20173;-83
2021/03/13 08:25:54;;;;;;;4.43;4.03;;;6.20;99.90;;;;;;6136534;23;20416;-83
2021/03/13 08:28:56;;;;;;;4.27;3.87;;;6.20;99.90;;;;;;6161877;23;20440;-83
2021/03/13 08:31:34;;;;;;;3.80;3.40;;;6.30;99.90;;;;;;6134656;23;20456;-83
2021/03/13 08:34:43;;;;;;;3.77;2.23;;;6.40;99.90;;;;;;6136337;23;20272;-83
2021/03/13 08:37:20;;;;;;;2.40;2.20;;;6.40;99.90;;;;;;6160853;23;20452;-83
2021/03/13 08:39:48;;;;;;;4.80;2.23;;;6.30;99.90;;;;;;6172532;23;20785;-83
2021/03/13 08:42:30;;;;;;;2.00;1.50;;;6.30;99.90;;;;;;6160139;23;20407;-83
2021/03/13 08:45:15;;;;;;;2.90;1.37;;;6.30;99.90;;;;;;6135534;23;20417;-83
2021/03/13 08:47:48;;;;;;;2.67;1.10;;;6.20;99.90;;;;;;6159207;23;20531;-83
2021/03/13 08:50:49;;;;;;;2.60;1.50;;;6.10;99.90;;;;;;6161726;23;20416;-82
2021/03/13 08:53:33;;;;;;;1.87;1.10;;;6.10;99.90;;;;;;6162330;23;20511;-82
2021/03/13 08:56:00;;;;;;;1.70;1.03;;;6.10;99.90;;;;;;6163321;23;20416;-82
2021/03/13 08:58:43;;;;;;;4.70;1.53;;;6.10;99.90;;;;;;6137763;23;20450;-82
2021/03/13 09:01:15;;;;;;;3.87;1.73;;;6.10;99.90;;;;;;6159559;23;20411;-82
2021/03/13 09:03:49;;;;;;;5.33;1.73;;;6.00;99.90;;;;;;6171829;23;20438;-82
2021/03/13 09:06:23;;;;;;;3.27;1.37;;;6.10;99.90;;;;;;6136752;23;20400;-82
2021/03/13 09:08:51;;;;;;;2.20;1.40;;;6.10;99.90;;;;;;6163243;23;20437;-82
2021/03/13 09:11:26;;;;;;;4.23;1.70;;;6.10;99.90;;;;;;6136851;23;20751;-81
2021/03/13 09:14:00;;;;;;;2.30;1.70;;;6.10;99.90;;;;;;6161513;23;20479;-81
2021/03/13 09:16:28;;;;;;;5.47;1.40;;;6.20;99.90;;;;;;6135891;23;20823;-81
2021/03/13 09:18:56;;;;;;;2.20;1.33;;;6.20;99.90;;;;;;6159493;23;20486;-81
2021/03/13 09:21:44;;;;;;;4.07;1.60;;;6.20;99.90;;;;;;6134700;23;20427;-81
2021/03/13 09:24:14;;;;;;;2.30;1.23;;;6.40;99.90;;;;;;6134940;23;20475;-81
2021/03/13 09:26:42;;;;;;;3.87;1.63;;;6.40;99.90;;;;;;6170661;23;20375;-81
2021/03/13 09:29:09;;;;;;;4.27;1.67;;;6.50;99.90;;;;;;6134124;23;20497;-81
2021/03/13 09:31:37;;;;;;;3.87;1.60;;;6.70;99.90;;;;;;6171015;23;20452;-81
2021/03/13 09:34:16;;;;;;;3.43;2.00;;;6.80;99.90;;;;;;6159244;23;20439;-81
2021/03/13 09:37:10;;;;;;;5.00;2.30;;;6.90;99.90;;;;;;6159591;23;20450;-82
2021/03/13 09:39:39;;;;;;;3.93;1.63;;;7.10;99.90;;;;;;6158864;23;20443;-82
2021/03/13 09:42:12;;;;;;;3.90;1.83;;;7.20;99.90;;;;;;6134613;23;20415;-82
2021/03/13 09:44:42;;;;;;;3.67;1.67;;;7.30;99.90;;;;;;6170847;23;20688;-82
2021/03/13 09:47:19;;;;;;;5.20;1.80;;;7.40;99.90;;;;;;6134894;23;20435;-81
2021/03/13 09:49:49;;;;;;;4.30;2.10;;;7.50;99.90;;;;;;6159012;23;20419;-82
2021/03/13 09:52:22;;;;;;;2.70;1.80;;;7.70;99.90;;;;;;6134432;23;20438;-82
2021/03/13 09:54:58;;;;;;;4.57;1.83;;;7.80;99.90;;;;;;6159284;23;20408;-82
2021/03/13 09:57:26;;;;;;;4.57;1.90;;;7.80;99.90;;;;;;6159527;23;20763;-82
2021/03/13 09:59:54;;;;;;;6.03;2.10;;;8.00;99.90;;;;;;6134669;23;20455;-82
2021/03/13 10:02:22;;;;;;;6.37;3.00;;;8.00;99.90;;;;;;6134621;23;20435;-82
2021/03/13 10:04:50;;;;;;;7.30;2.20;;;8.10;99.90;;;;;;6134468;23;20439;-82
2021/03/13 10:07:28;;;;;;;7.73;2.03;;;8.10;99.90;;;;;;6134710;23;20478;-82
2021/03/13 10:09:59;;;;;;;3.17;1.90;;;8.10;99.90;;;;;;6134888;23;20413;-82
2021/03/13 10:12:31;;;;;;;4.17;1.90;;;8.10;99.90;;;;;;6160109;23;20409;-82
2021/03/13 10:15:13;;;;;;;3.80;1.77;;;8.10;99.90;;;;;;6134696;23;20444;-82
2021/03/13 10:18:05;;;;;;;5.77;2.53;;;8.10;99.90;;;;;;6134827;23;20816;-82
2021/03/13 10:20:35;;;;;;;5.43;2.73;;;8.10;99.90;;;;;;6155793;23;20416;-82
2021/03/13 10:23:05;;;;;;;6.40;2.60;;;8.20;99.90;;;;;;6159540;23;20408;-81
2021/03/13 10:25:34;;;;;;;4.50;2.10;;;8.30;99.90;;;;;;6170882;23;20407;-82
2021/03/13 10:28:07;;;;;;;5.93;1.90;;;8.40;99.90;;;;;;6163411;23;20450;-82
2021/03/13 10:30:35;;;;;;;8.17;2.60;;;8.50;99.90;;;;;;6136893;23;20444;-82
2021/03/13 10:33:03;;;;;;;5.33;1.67;;;8.60;99.90;;;;;;6138193;23;20440;-81
2021/03/13 10:35:33;;;;;;;7.20;2.00;;;8.70;99.90;;;;;;6140882;23;20422;-81
2021/03/13 10:38:02;;;;;;;3.97;1.60;;;8.80;99.90;;;;;;6141943;23;20444;-81
2021/03/13 10:40:39;;;;;;;3.60;1.70;;;8.90;99.90;;;;;;6135320;23;20535;-81
2021/03/13 10:43:17;;;;;;;5.73;3.27;;;9.00;99.90;;;;;;6135363;23;20413;-82
2021/03/13 10:45:46;;;;;;;4.83;1.90;;;9.10;99.90;;;;;;6159459;23;20443;-81
2021/03/13 10:48:14;;;;;;;5.57;2.03;;;9.10;99.90;;;;;;6159986;23;20476;-82
2021/03/13 10:50:43;;;;;;;6.13;2.33;;;9.20;99.90;;;;;;6136731;23;20417;-82
2021/03/13 10:53:32;;;;;;;3.67;2.00;;;9.10;99.90;;;;;;6136745;23;20464;-81
2021/03/13 10:56:03;;;;;;;7.27;2.50;;;9.10;99.90;;;;;;6173322;23;20475;-81
2021/03/13 10:58:31;;;;;;;9.03;2.93;;;9.10;99.90;;;;;;6135564;23;20437;-81
2021/03/13 11:01:11;;;;;;;5.50;2.20;;;9.00;99.90;;;;;;6160729;23;20412;-80
2021/03/13 11:03:43;;;;;;;4.73;2.30;;;8.90;99.90;;;;;;6158858;23;20487;-81
2021/03/13 11:06:25;;;;;;;4.00;2.03;;;8.80;99.90;;;;;;6132776;23;20415;-81
2021/03/13 11:09:06;;;;;;;6.57;2.40;;;8.60;99.90;;;;;;6157501;23;20523;-81
2021/03/13 11:12:02;;;;;;;3.70;1.80;;;8.40;99.90;;;;;;6158094;23;20416;-81
2021/03/13 11:14:43;;;;;;;5.70;2.40;;;8.20;99.90;;;;;;6109382;23;20920;-81
2021/03/13 11:17:16;;;;;;;6.70;2.13;;;8.10;99.90;;;;;;6170400;23;20411;-81
2021/03/13 11:19:44;;;;;;;5.77;2.00;;;8.10;99.90;;;;;;6158005;23;20425;-81
2021/03/13 11:22:11;;;;;;;6.33;2.10;;;8.10;99.90;;;;;;6133581;23;20487;-81
2021/03/13 11:24:40;;;;;;;8.90;2.80;;;8.10;99.90;;;;;;6158192;23;20424;-81
2021/03/13 11:27:10;;;;;;;6.00;2.20;;;8.10;99.90;;;;;;6159262;23;20408;-81
2021/03/13 11:29:49;;;;;;;8.53;2.50;;;8.10;99.90;;;;;;6159898;23;20453;-81
2021/03/13 11:32:30;;;;;;;7.87;2.20;;;8.10;99.90;;;;;;6134125;23;20899;-81
2021/03/13 11:35:13;;;;;;;5.37;2.33;;;8.10;99.90;;;;;;6160593;23;20400;-81
2021/03/13 11:37:42;;;;;;;5.80;2.43;;;8.00;99.90;;;;;;6158614;23;20436;-81
2021/03/13 11:40:16;;;;;;;3.43;2.20;;;8.00;99.90;;;;;;6170020;23;20381;-81
2021/03/13 11:42:47;;;;;;;7.00;2.37;;;7.90;99.90;;;;;;6133391;23;20411;-80
2021/03/13 11:45:16;;;;;;;4.83;2.60;;;7.80;99.90;;;;;;6134786;23;20423;-81
2021/03/13 11:47:44;;;;;;;5.23;2.37;;;7.70;99.90;;;;;;6133557;23;20443;-81
2021/03/13 11:50:14;;;;;;;4.07;1.90;;;7.60;99.90;;;;;;6169788;23;20461;-82
2021/03/13 11:52:42;;;;;;;4.87;1.90;;;7.60;99.90;;;;;;6158625;23;20412;-81
2021/03/13 11:55:11;;;;;;;7.93;1.60;;;7.50;99.90;;;;;;6134571;23;20444;-81
2021/03/13 11:57:39;;;;;;;4.10;1.57;;;7.60;99.90;;;;;;6133953;23;20446;-82
2021/03/13 12:00:10;;;;;;;4.60;2.23;;;7.60;99.90;;;;;;6134351;23;20427;-81
2021/03/13 12:02:38;;;;;;;4.23;1.67;;;7.60;99.90;;;;;;6158518;23;20505;-81
2021/03/13 12:05:08;;;;;;;10.40;3.30;;;7.70;99.90;;;;;;6133897;23;20964;-81
2021/03/13 12:07:37;;;;;;;4.27;1.60;;;7.70;99.90;;;;;;6158085;23;20509;-81
2021/03/13 12:10:06;;;;;;;5.43;1.87;;;7.80;99.90;;;;;;6133278;23;20477;-80
2021/03/13 12:12:33;;;;;;;6.60;1.87;;;7.90;99.90;;;;;;6168979;23;20404;-80
2021/03/13 12:15:00;;;;;;;5.87;1.87;;;7.90;99.90;;;;;;6133161;23;20907;-80
2021/03/13 12:17:29;;;;;;;4.07;2.13;;;7.90;99.90;;;;;;6132935;23;20421;-81
2021/03/13 12:19:56;;;;;;;4.83;2.60;;;8.00;99.90;;;;;;6157575;23;20420;-80
2021/03/13 12:22:26;;;;;;;3.40;2.20;;;8.00;99.90;;;;;;6169790;23;20459;-80
2021/03/13 12:25:14;;;;;;;7.87;3.47;;;8.10;99.90;;;;;;6157699;23;20424;-81
2021/03/13 12:27:49;;;;;;;5.53;1.90;;;8.20;99.90;;;;;;6158468;23;20442;-81
2021/03/13 12:30:22;;;;;;;6.40;2.03;;;8.20;99.90;;;;;;6133760;23;20420;-81
2021/03/13 12:33:04;;;;;;;4.70;2.30;;;8.30;99.90;;;;;;6169754;23;20828;-81
2021/03/13 12:35:34;;;;;;;5.67;1.93;;;8.50;99.90;;;;;;6135430;23;20527;-80
2021/03/13 12:38:02;;;;;;;8.67;2.73;;;8.60;99.90;;;;;;6135409;23;20482;-81
2021/03/13 12:40:49;;;;;;;6.22;2.50;;;8.70;99.90;;;;;;6159393;23;20412;-81
2021/03/13 12:43:29;;;;;;;6.13;1.80;;;8.80;99.90;;;;;;6161167;23;20157;-81
2021/03/13 12:45:59;;;;;;;7.70;3.00;;;8.80;99.90;;;;;;6136397;23;20429;-81
2021/03/13 12:48:34;;;;;;;7.13;2.63;;;8.90;99.90;;;;;;6135807;23;20448;-80
2021/03/13 12:51:01;;;;;;;6.70;2.10;;;9.00;99.90;;;;;;6160818;23;20968;-80
2021/03/13 12:53:29;;;;;;;5.43;2.30;;;9.00;99.90;;;;;;6137319;23;20467;-80
2021/03/13 12:55:58;;;;;;;3.93;1.83;;;9.00;99.90;;;;;;6138169;23;20491;-80
2021/03/13 12:58:26;;;;;;;5.93;2.00;;;9.10;99.90;;;;;;6162862;23;20451;-80
2021/03/13 13:01:20;;;;;;;8.13;2.40;;;9.00;99.90;;;;;;6161773;23;20896;-80
2021/03/13 13:03:58;;;;;;;4.00;1.90;;;9.00;99.90;;;;;;6160891;23;20520;-80
2021/03/13 13:06:35;;;;;;;;;;;;;;;;;;;;;
2021/03/13 13:09:07;;;;;;;6.17;2.57;;;9.00;99.90;;;;;;6130349;23;20464;-81
2021/03/13 13:11:57;;;;;;;3.60;2.00;;;9.00;99.90;;;;;;6136704;23;20424;-81
2021/03/13 13:14:25;;;;;;;5.90;2.30;;;9.00;99.90;;;;;;6156650;23;20444;-81
2021/03/13 13:17:04;;;;;;;3.80;1.83;;;9.10;99.90;;;;;;6136455;23;20408;-81
2021/03/13 13:19:55;;;;;;;7.90;2.60;;;9.20;99.90;;;;;;6164990;23;20443;-81
2021/03/13 13:22:43;;;;;;;4.67;2.00;;;9.30;99.90;;;;;;6132116;23;20422;-81
2021/03/13 13:25:12;;;;;;;5.63;2.53;;;9.30;99.90;;;;;;6163198;23;20910;-81
2021/03/13 13:27:40;;;;;;;9.17;2.70;;;9.40;99.90;;;;;;6142137;23;20444;-80